sensor_id;sensor_type;location;lat;lon;timestamp;pressure;altitude;pressure_sealevel;temperature;humidity
8059;BME280;4072;42.668;23.396;2023-05-25T00:01:51;95049.13;;;16.08;100.00
8059;BME280;4072;42.668;23.396;2023-05-25T00:04:20;95029.56;;;15.84;100.00
8059;BME280;4072;42.668;23.396;2023-05-25T00:06:52;95053.69;;;15.91;100.00
8059;BME280;4072;42.668;23.396;2023-05-25T00:09:20;95060.22;;;15.79;100.00
8059;BME280;4072;42.668;23.396;2023-05-25T00:11:48;95055.41;;;15.69;100.00
8059;BME280;4072;42.668;23.396;2023-05-25T00:14:19;95053.72;;;15.71;100.00
8059;BME280;4072;42.668;23.396;2023-05-25T00:16:47;95046.22;;;15.66;100.00
8059;BME280;4072;42.668;23.396;2023-05-25T00:19:17;95049.63;;;15.61;100.00
8059;BME280;4072;42.668;23.396;2023-05-25T00:21:45;95051.69;;;15.66;100.00
8059;BME280;4072;42.668;23.396;2023-05-25T00:24:14;95043.91;;;15.59;100.00
8059;BME280;4072;42.668;23.396;2023-05-25T00:26:42;95064.50;;;15.60;100.00
8059;BME280;4072;42.668;23.396;2023-05-25T00:29:10;95057.06;;;15.61;100.00
8059;BME280;4072;42.668;23.396;2023-05-25T00:31:39;95057.00;;;15.55;100.00
8059;BME280;4072;42.668;23.396;2023-05-25T00:34:07;95064.91;;;15.53;100.00
8059;BME280;4072;42.668;23.396;2023-05-25T00:36:35;95061.50;;;15.58;100.00
8059;BME280;4072;42.668;23.396;2023-05-25T00:39:03;95053.72;;;15.71;100.00
8059;BME280;4072;42.668;23.396;2023-05-25T00:41:32;95059.44;;;15.73;100.00
8059;BME280;4072;42.668;23.396;2023-05-25T00:44:00;95056.56;;;15.82;100.00
8059;BME280;4072;42.668;23.396;2023-05-25T00:46:29;95060.09;;;15.88;100.00
8059;BME280;4072;42.668;23.396;2023-05-25T00:49:01;95066.50;;;15.85;100.00
8059;BME280;4072;42.668;23.396;2023-05-25T00:51:29;95070.19;;;15.82;100.00
8059;BME280;4072;42.668;23.396;2023-05-25T00:53:58;95067.31;;;15.91;100.00
8059;BME280;4072;42.668;23.396;2023-05-25T00:56:29;95060.22;;;15.79;100.00
8059;BME280;4072;42.668;23.396;2023-05-25T00:59:02;95062.72;;;15.77;100.00
8059;BME280;4072;42.668;23.396;2023-05-25T01:01:34;95069.13;;;15.74;100.00
8059;BME280;4072;42.668;23.396;2023-05-25T01:04:08;95070.28;;;15.68;100.00
8059;BME280;4072;42.668;23.396;2023-05-25T01:06:38;95067.09;;;15.69;100.00
8059;BME280;4072;42.668;23.396;2023-05-25T01:09:07;95071.50;;;15.67;100.00
8059;BME280;4072;42.668;23.396;2023-05-25T01:11:41;95074.88;;;15.56;100.00
8059;BME280;4072;42.668;23.396;2023-05-25T01:14:09;95078.94;;;15.66;100.00
8059;BME280;4072;42.668;23.396;2023-05-25T01:16:38;95075.69;;;15.62;100.00
8059;BME280;4072;42.668;23.396;2023-05-25T01:19:08;95078.53;;;15.73;100.00
8059;BME280;4072;42.668;23.396;2023-05-25T01:21:41;95066.88;;;15.73;100.00
8059;BME280;4072;42.668;23.396;2023-05-25T01:24:15;95034.09;;;15.47;100.00
8059;BME280;4072;42.668;23.396;2023-05-25T01:26:54;95060.34;;;15.65;100.00
8059;BME280;4072;42.668;23.396;2023-05-25T01:29:25;95051.94;;;15.68;100.00
8059;BME280;4072;42.668;23.396;2023-05-25T01:31:56;95040.50;;;15.64;100.00
8059;BME280;4072;42.668;23.396;2023-05-25T01:34:25;95062.38;;;15.70;100.00
8059;BME280;4072;42.668;23.396;2023-05-25T01:36:55;95057.00;;;15.55;100.00
8059;BME280;4072;42.668;23.396;2023-05-25T01:39:23;95057.63;;;15.45;100.00
8059;BME280;4072;42.668;23.396;2023-05-25T01:41:51;95046.59;;;15.19;100.00
8059;BME280;4072;42.668;23.396;2023-05-25T01:44:19;95049.59;;;14.81;100.00
8059;BME280;4072;42.668;23.396;2023-05-25T01:46:51;95051.38;;;14.69;100.00
8059;BME280;4072;42.668;23.396;2023-05-25T01:49:25;95046.97;;;14.72;100.00
8059;BME280;4072;42.668;23.396;2023-05-25T01:52:02;95050.19;;;14.56;100.00
8059;BME280;4072;42.668;23.396;2023-05-25T01:54:36;95060.31;;;14.70;100.00
8059;BME280;4072;42.668;23.396;2023-05-25T01:57:06;95049.13;;;14.68;100.00
8059;BME280;4072;42.668;23.396;2023-05-25T01:59:35;95046.63;;;14.50;100.00
8059;BME280;4072;42.668;23.396;2023-05-25T02:02:04;95060.16;;;14.30;100.00
8059;BME280;4072;42.668;23.396;2023-05-25T02:04:34;95059.34;;;14.24;100.00
8059;BME280;4072;42.668;23.396;2023-05-25T02:07:04;95051.31;;;14.49;100.00
8059;BME280;4072;42.668;23.396;2023-05-25T02:09:32;95063.81;;;14.27;100.00
8059;BME280;4072;42.668;23.396;2023-05-25T02:12:00;95062.81;;;14.39;100.00
8059;BME280;4072;42.668;23.396;2023-05-25T02:14:28;95064.28;;;14.40;100.00
8059;BME280;4072;42.668;23.396;2023-05-25T02:16:56;95067.56;;;14.44;100.00
8059;BME280;4072;42.668;23.396;2023-05-25T02:19:28;95072.53;;;14.60;100.00
8059;BME280;4072;42.668;23.396;2023-05-25T02:21:56;95074.53;;;14.45;100.00
8059;BME280;4072;42.668;23.396;2023-05-25T02:24:26;95052.75;;;14.45;100.00
8059;BME280;4072;42.668;23.396;2023-05-25T02:26:53;95063.97;;;14.67;100.00
8059;BME280;4072;42.668;23.396;2023-05-25T02:29:22;95073.41;;;14.86;100.00
8059;BME280;4072;42.668;23.396;2023-05-25T02:31:50;95083.53;;;14.86;100.00
8059;BME280;4072;42.668;23.396;2023-05-25T02:34:18;95081.13;;;14.73;100.00
8059;BME280;4072;42.668;23.396;2023-05-25T02:36:47;95074.28;;;14.77;100.00
8059;BME280;4072;42.668;23.396;2023-05-25T02:39:16;95083.00;;;14.82;100.00
8059;BME280;4072;42.668;23.396;2023-05-25T02:41:45;95081.03;;;14.82;100.00
8059;BME280;4072;42.668;23.396;2023-05-25T02:44:13;95090.34;;;14.76;100.00
8059;BME280;4072;42.668;23.396;2023-05-25T02:46:41;95100.09;;;14.82;100.00
8059;BME280;4072;42.668;23.396;2023-05-25T02:49:09;95097.75;;;14.75;100.00
8059;BME280;4072;42.668;23.396;2023-05-25T02:51:37;95097.69;;;14.69;100.00
8059;BME280;4072;42.668;23.396;2023-05-25T02:54:05;95102.66;;;14.71;100.00
8059;BME280;4072;42.668;23.396;2023-05-25T02:56:33;95109.72;;;14.63;100.00
8059;BME280;4072;42.668;23.396;2023-05-25T02:59:03;95107.63;;;14.58;100.00
8059;BME280;4072;42.668;23.396;2023-05-25T03:01:31;95117.13;;;14.77;100.00
8059;BME280;4072;42.668;23.396;2023-05-25T03:04:00;95100.09;;;14.67;100.00
8059;BME280;4072;42.668;23.396;2023-05-25T03:06:28;95081.34;;;14.55;100.00
8059;BME280;4072;42.668;23.396;2023-05-25T03:08:56;95106.13;;;14.72;100.00
8059;BME280;4072;42.668;23.396;2023-05-25T03:11:25;95114.94;;;14.66;100.00
8059;BME280;4072;42.668;23.396;2023-05-25T03:13:54;95117.03;;;14.57;100.00
8059;BME280;4072;42.668;23.396;2023-05-25T03:16:23;95123.31;;;14.63;100.00
8059;BME280;4072;42.668;23.396;2023-05-25T03:18:51;95113.25;;;14.69;100.00
8059;BME280;4072;42.668;23.396;2023-05-25T03:21:19;95116.09;;;14.60;100.00
8059;BME280;4072;42.668;23.396;2023-05-25T03:23:49;95117.69;;;14.52;100.00
8059;BME280;4072;42.668;23.396;2023-05-25T03:26:17;94987.72;;;13.60;100.00
8059;BME280;4072;42.668;23.396;2023-05-25T03:28:45;95119.56;;;14.46;100.00
8059;BME280;4072;42.668;23.396;2023-05-25T03:31:13;95119.38;;;14.49;100.00
8059;BME280;4072;42.668;23.396;2023-05-25T03:33:42;95114.00;;;14.55;100.00
8059;BME280;4072;42.668;23.396;2023-05-25T03:36:11;95120.59;;;14.48;100.00
8059;BME280;4072;42.668;23.396;2023-05-25T03:38:39;95084.44;;;14.19;100.00
8059;BME280;4072;42.668;23.396;2023-05-25T03:41:07;95112.53;;;14.54;100.00
8059;BME280;4072;42.668;23.396;2023-05-25T03:43:35;95091.59;;;14.45;100.00
8059;BME280;4072;42.668;23.396;2023-05-25T03:46:02;95125.47;;;14.59;100.00
8059;BME280;4072;42.668;23.396;2023-05-25T03:48:30;95122.56;;;14.62;100.00
8059;BME280;4072;42.668;23.396;2023-05-25T03:51:00;95121.88;;;14.82;100.00
8059;BME280;4072;42.668;23.396;2023-05-25T03:53:28;95118.31;;;14.91;100.00
8059;BME280;4072;42.668;23.396;2023-05-25T03:55:56;95120.72;;;14.89;100.00
8059;BME280;4072;42.668;23.396;2023-05-25T03:58:24;95125.84;;;14.81;100.00
8059;BME280;4072;42.668;23.396;2023-05-25T04:00:52;95127.41;;;14.73;100.00
8059;BME280;4072;42.668;23.396;2023-05-25T04:03:20;95086.53;;;14.53;100.00
8059;BME280;4072;42.668;23.396;2023-05-25T04:05:49;95134.81;;;14.87;100.00
8059;BME280;4072;42.668;23.396;2023-05-25T04:08:18;95137.63;;;14.93;100.00
8059;BME280;4072;42.668;23.396;2023-05-25T04:10:46;95138.13;;;14.91;100.00
8059;BME280;4072;42.668;23.396;2023-05-25T04:13:14;95118.78;;;14.89;100.00
8059;BME280;4072;42.668;23.396;2023-05-25T04:15:42;95143.06;;;15.07;100.00
8059;BME280;4072;42.668;23.396;2023-05-25T04:18:10;95140.38;;;15.27;100.00
8059;BME280;4072;42.668;23.396;2023-05-25T04:20:38;95148.34;;;15.45;100.00
8059;BME280;4072;42.668;23.396;2023-05-25T04:23:07;95148.34;;;15.45;100.00
8059;BME280;4072;42.668;23.396;2023-05-25T04:25:36;95149.72;;;15.55;100.00
8059;BME280;4072;42.668;23.396;2023-05-25T04:28:04;95151.50;;;15.58;100.00
8059;BME280;4072;42.668;23.396;2023-05-25T04:30:33;95147.88;;;15.87;100.00
8059;BME280;4072;42.668;23.396;2023-05-25T04:33:02;95128.00;;;15.86;100.00
8059;BME280;4072;42.668;23.396;2023-05-25T04:35:30;95156.03;;;16.07;100.00
8059;BME280;4072;42.668;23.396;2023-05-25T04:37:58;95133.78;;;16.14;100.00
8059;BME280;4072;42.668;23.396;2023-05-25T04:40:28;95108.22;;;16.11;100.00
8059;BME280;4072;42.668;23.396;2023-05-25T04:43:00;95119.34;;;16.33;100.00
8059;BME280;4072;42.668;23.396;2023-05-25T04:45:29;95124.69;;;16.22;100.00
8059;BME280;4072;42.668;23.396;2023-05-25T04:47:58;95160.97;;;16.28;100.00
8059;BME280;4072;42.668;23.396;2023-05-25T04:50:27;95155.94;;;16.21;100.00
8059;BME280;4072;42.668;23.396;2023-05-25T04:52:55;95143.78;;;16.42;100.00
8059;BME280;4072;42.668;23.396;2023-05-25T04:55:23;95159.81;;;16.60;100.00
8059;BME280;4072;42.668;23.396;2023-05-25T04:57:52;95153.59;;;16.85;100.00
8059;BME280;4072;42.668;23.396;2023-05-25T05:00:22;95139.69;;;16.83;100.00
8059;BME280;4072;42.668;23.396;2023-05-25T05:02:50;95148.31;;;17.07;100.00
8059;BME280;4072;42.668;23.396;2023-05-25T05:05:19;95141.03;;;17.35;100.00
8059;BME280;4072;42.668;23.396;2023-05-25T05:07:47;95148.66;;;17.63;100.00
8059;BME280;4072;42.668;23.396;2023-05-25T05:10:15;95146.88;;;18.13;100.00
8059;BME280;4072;42.668;23.396;2023-05-25T05:12:43;95143.28;;;18.60;100.00
8059;BME280;4072;42.668;23.396;2023-05-25T05:15:11;95152.00;;;18.80;100.00
8059;BME280;4072;42.668;23.396;2023-05-25T05:17:40;95093.97;;;18.65;100.00
8059;BME280;4072;42.668;23.396;2023-05-25T05:20:09;95141.03;;;19.08;100.00
8059;BME280;4072;42.668;23.396;2023-05-25T05:22:37;95142.31;;;18.90;100.00
8059;BME280;4072;42.668;23.396;2023-05-25T05:25:05;95131.06;;;18.83;100.00
8059;BME280;4072;42.668;23.396;2023-05-25T05:27:33;95154.50;;;19.11;100.00
8059;BME280;4072;42.668;23.396;2023-05-25T05:30:02;95078.19;;;18.16;100.00
8059;BME280;4072;42.668;23.396;2023-05-25T05:32:30;95144.09;;;18.02;100.00
8059;BME280;4072;42.668;23.396;2023-05-25T05:34:59;95145.38;;;18.12;100.00
8059;BME280;4072;42.668;23.396;2023-05-25T05:37:28;95147.44;;;18.28;100.00
8059;BME280;4072;42.668;23.396;2023-05-25T05:39:55;95172.81;;;18.34;100.00
8059;BME280;4072;42.668;23.396;2023-05-25T05:42:24;95147.91;;;18.21;100.00
8059;BME280;4072;42.668;23.396;2023-05-25T05:44:52;95167.16;;;18.43;100.00
8059;BME280;4072;42.668;23.396;2023-05-25T05:47:20;95188.31;;;18.37;100.00
8059;BME280;4072;42.668;23.396;2023-05-25T05:49:48;95176.63;;;18.42;100.00
8059;BME280;4072;42.668;23.396;2023-05-25T05:52:17;95182.34;;;18.44;100.00
8059;BME280;4072;42.668;23.396;2023-05-25T05:54:45;95174.63;;;18.48;100.00
8059;BME280;4072;42.668;23.396;2023-05-25T05:57:13;95176.63;;;18.36;100.00
8059;BME280;4072;42.668;23.396;2023-05-25T05:59:41;95168.41;;;18.42;100.00
8059;BME280;4072;42.668;23.396;2023-05-25T06:02:09;95181.94;;;18.84;100.00
8059;BME280;4072;42.668;23.396;2023-05-25T06:04:37;95173.47;;;19.26;100.00
8059;BME280;4072;42.668;23.396;2023-05-25T06:07:05;95174.44;;;19.45;100.00
8059;BME280;4072;42.668;23.396;2023-05-25T06:09:34;95173.09;;;19.79;100.00
8059;BME280;4072;42.668;23.396;2023-05-25T06:12:03;95151.94;;;19.74;100.00
8059;BME280;4072;42.668;23.396;2023-05-25T06:14:31;95163.34;;;19.89;100.00
8059;BME280;4072;42.668;23.396;2023-05-25T06:16:59;95172.81;;;19.99;100.00
8059;BME280;4072;42.668;23.396;2023-05-25T06:19:28;95167.44;;;20.34;100.00
8059;BME280;4072;42.668;23.396;2023-05-25T06:21:56;95151.38;;;20.84;100.00
8059;BME280;4072;42.668;23.396;2023-05-25T06:24:24;95173.06;;;21.28;100.00
8059;BME280;4072;42.668;23.396;2023-05-25T06:26:53;95174.69;;;21.42;100.00
8059;BME280;4072;42.668;23.396;2023-05-25T06:29:21;95151.63;;;21.21;100.00
8059;BME280;4072;42.668;23.396;2023-05-25T06:31:49;95169.75;;;21.59;100.00
8059;BME280;4072;42.668;23.396;2023-05-25T06:34:17;95171.50;;;21.86;100.00
8059;BME280;4072;42.668;23.396;2023-05-25T06:36:45;95172.44;;;22.55;95.25
8059;BME280;4072;42.668;23.396;2023-05-25T06:39:14;95181.78;;;22.28;95.83
8059;BME280;4072;42.668;23.396;2023-05-25T06:41:42;95141.28;;;21.81;95.82
8059;BME280;4072;42.668;23.396;2023-05-25T06:44:11;95180.53;;;22.05;95.97
8059;BME280;4072;42.668;23.396;2023-05-25T06:46:39;95179.44;;;21.95;96.02
8059;BME280;4072;42.668;23.396;2023-05-25T06:49:07;95182.78;;;21.59;98.99
8059;BME280;4072;42.668;23.396;2023-05-25T06:51:35;95179.53;;;21.60;100.00
8059;BME280;4072;42.668;23.396;2023-05-25T06:54:04;95183.13;;;21.50;100.00
8059;BME280;4072;42.668;23.396;2023-05-25T06:56:33;95192.84;;;21.56;100.00
8059;BME280;4072;42.668;23.396;2023-05-25T06:59:01;95191.63;;;22.00;98.86
8059;BME280;4072;42.668;23.396;2023-05-25T07:01:31;95182.22;;;22.32;94.84
8059;BME280;4072;42.668;23.396;2023-05-25T07:03:59;95187.84;;;22.45;94.15
8059;BME280;4072;42.668;23.396;2023-05-25T07:06:27;95187.03;;;22.88;90.94
8059;BME280;4072;42.668;23.396;2023-05-25T07:08:55;95183.22;;;23.54;85.20
8059;BME280;4072;42.668;23.396;2023-05-25T07:11:24;95176.19;;;24.10;78.48
8059;BME280;4072;42.668;23.396;2023-05-25T07:13:54;95166.91;;;24.21;75.99
8059;BME280;4072;42.668;23.396;2023-05-25T07:16:22;95173.91;;;24.48;74.42
8059;BME280;4072;42.668;23.396;2023-05-25T07:18:52;95172.72;;;24.43;74.48
8059;BME280;4072;42.668;23.396;2023-05-25T07:21:20;95177.31;;;24.28;75.49
8059;BME280;4072;42.668;23.396;2023-05-25T07:23:48;95179.47;;;23.96;77.58
8059;BME280;4072;42.668;23.396;2023-05-25T07:26:16;95180.59;;;23.87;77.99
8059;BME280;4072;42.668;23.396;2023-05-25T07:28:46;95184.72;;;23.55;80.35
8059;BME280;4072;42.668;23.396;2023-05-25T07:31:14;95182.41;;;23.27;82.67
8059;BME280;4072;42.668;23.396;2023-05-25T07:33:43;95175.47;;;22.89;85.58
8059;BME280;4072;42.668;23.396;2023-05-25T07:36:13;95183.38;;;22.42;90.94
8059;BME280;4072;42.668;23.396;2023-05-25T07:38:41;95189.13;;;22.02;95.63
8059;BME280;4072;42.668;23.396;2023-05-25T07:41:09;95189.53;;;21.87;97.64
8059;BME280;4072;42.668;23.396;2023-05-25T07:43:39;95176.38;;;21.75;99.74
8059;BME280;4072;42.668;23.396;2023-05-25T07:46:07;95190.28;;;21.58;100.00
8059;BME280;4072;42.668;23.396;2023-05-25T07:48:34;95179.94;;;21.40;100.00
8059;BME280;4072;42.668;23.396;2023-05-25T07:51:03;95172.13;;;21.20;100.00
8059;BME280;4072;42.668;23.396;2023-05-25T07:53:32;95194.69;;;21.13;100.00
8059;BME280;4072;42.668;23.396;2023-05-25T07:56:00;95196.28;;;21.03;100.00
8059;BME280;4072;42.668;23.396;2023-05-25T07:58:28;95186.00;;;20.63;100.00
8059;BME280;4072;42.668;23.396;2023-05-25T08:00:56;95200.16;;;20.32;100.00
8059;BME280;4072;42.668;23.396;2023-05-25T08:03:24;95207.28;;;19.89;100.00
8059;BME280;4072;42.668;23.396;2023-05-25T08:06:12;95205.84;;;19.71;100.00
8059;BME280;4072;42.668;23.396;2023-05-25T08:08:42;95217.09;;;19.46;100.00
8059;BME280;4072;42.668;23.396;2023-05-25T08:11:10;95225.84;;;19.28;100.00
8059;BME280;4072;42.668;23.396;2023-05-25T08:13:38;95216.09;;;19.16;100.00
8059;BME280;4072;42.668;23.396;2023-05-25T08:16:06;95194.63;;;18.87;100.00
8059;BME280;4072;42.668;23.396;2023-05-25T08:18:34;95238.75;;;19.00;100.00
8059;BME280;4072;42.668;23.396;2023-05-25T08:21:03;95234.03;;;18.95;100.00
8059;BME280;4072;42.668;23.396;2023-05-25T08:23:31;95239.22;;;18.82;100.00
8059;BME280;4072;42.668;23.396;2023-05-25T08:26:00;95240.22;;;18.79;100.00
8059;BME280;4072;42.668;23.396;2023-05-25T08:28:37;95241.69;;;18.69;100.00
8059;BME280;4072;42.668;23.396;2023-05-25T08:31:05;95256.44;;;18.82;100.00
8059;BME280;4072;42.668;23.396;2023-05-25T08:33:33;95257.16;;;18.77;100.00
8059;BME280;4072;42.668;23.396;2023-05-25T08:36:02;95268.34;;;18.63;100.00
8059;BME280;4072;42.668;23.396;2023-05-25T08:38:30;95262.03;;;18.46;100.00
8059;BME280;4072;42.668;23.396;2023-05-25T08:41:04;95258.44;;;18.23;100.00
8059;BME280;4072;42.668;23.396;2023-05-25T08:43:32;95239.28;;;17.76;100.00
8059;BME280;4072;42.668;23.396;2023-05-25T08:46:03;95233.03;;;17.07;100.00
8059;BME280;4072;42.668;23.396;2023-05-25T08:48:33;95270.38;;;16.90;100.00
8059;BME280;4072;42.668;23.396;2023-05-25T08:51:09;95270.59;;;16.61;100.00
8059;BME280;4072;42.668;23.396;2023-05-25T08:53:40;95285.81;;;16.28;100.00
8059;BME280;4072;42.668;23.396;2023-05-25T08:56:13;95259.78;;;15.92;100.00
8059;BME280;4072;42.668;23.396;2023-05-25T08:58:45;95289.88;;;15.98;100.00
8059;BME280;4072;42.668;23.396;2023-05-25T09:01:20;95305.00;;;15.79;100.00
8059;BME280;4072;42.668;23.396;2023-05-25T09:03:51;95310.75;;;15.66;100.00
8059;BME280;4072;42.668;23.396;2023-05-25T09:06:19;95282.56;;;15.40;100.00
8059;BME280;4072;42.668;23.396;2023-05-25T09:08:49;95225.34;;;15.11;100.00
8059;BME280;4072;42.668;23.396;2023-05-25T09:11:19;95314.59;;;15.74;100.00
8059;BME280;4072;42.668;23.396;2023-05-25T09:14:03;95318.25;;;15.71;100.00
8059;BME280;4072;42.668;23.396;2023-05-25T09:16:31;95324.72;;;15.74;100.00
8059;BME280;4072;42.668;23.396;2023-05-25T09:19:00;95317.16;;;15.63;100.00
8059;BME280;4072;42.668;23.396;2023-05-25T09:21:28;95284.72;;;15.51;100.00
8059;BME280;4072;42.668;23.396;2023-05-25T09:23:58;95327.16;;;15.86;100.00
8059;BME280;4072;42.668;23.396;2023-05-25T09:26:27;95299.22;;;15.91;100.00
8059;BME280;4072;42.668;23.396;2023-05-25T09:28:56;95314.31;;;16.07;100.00
8059;BME280;4072;42.668;23.396;2023-05-25T09:31:24;95314.16;;;16.50;100.00
8059;BME280;4072;42.668;23.396;2023-05-25T09:33:52;95250.81;;;16.26;100.00
8059;BME280;4072;42.668;23.396;2023-05-25T09:36:26;95315.78;;;16.62;100.00
8059;BME280;4072;42.668;23.396;2023-05-25T09:38:54;95289.56;;;16.70;100.00
8059;BME280;4072;42.668;23.396;2023-05-25T09:41:23;95302.75;;;16.97;100.00
8059;BME280;4072;42.668;23.396;2023-05-25T09:43:55;95269.44;;;16.93;100.00
8059;BME280;4072;42.668;23.396;2023-05-25T09:46:36;95291.03;;;17.17;100.00
8059;BME280;4072;42.668;23.396;2023-05-25T09:49:07;95292.50;;;17.18;100.00
8059;BME280;4072;42.668;23.396;2023-05-25T09:51:35;95285.81;;;17.44;100.00
8059;BME280;4072;42.668;23.396;2023-05-25T09:54:03;95295.19;;;17.38;100.00
8059;BME280;4072;42.668;23.396;2023-05-25T09:56:35;95287.97;;;17.40;100.00
8059;BME280;4072;42.668;23.396;2023-05-25T09:59:05;95291.34;;;17.56;100.00
8059;BME280;4072;42.668;23.396;2023-05-25T10:01:33;95287.66;;;17.59;100.00
8059;BME280;4072;42.668;23.396;2023-05-25T10:04:01;95275.25;;;17.63;100.00
8059;BME280;4072;42.668;23.396;2023-05-25T10:06:31;95266.13;;;17.72;100.00
8059;BME280;4072;42.668;23.396;2023-05-25T10:09:00;95269.09;;;17.74;100.00
8059;BME280;4072;42.668;23.396;2023-05-25T10:11:32;95268.25;;;17.99;100.00
8059;BME280;4072;42.668;23.396;2023-05-25T10:14:05;95252.38;;;18.61;100.00
8059;BME280;4072;42.668;23.396;2023-05-25T10:16:35;95256.19;;;18.97;100.00
8059;BME280;4072;42.668;23.396;2023-05-25T10:19:11;95072.44;;;18.09;100.00
8059;BME280;4072;42.668;23.396;2023-05-25T10:21:47;95221.31;;;19.69;100.00
8059;BME280;4072;42.668;23.396;2023-05-25T10:24:23;95196.88;;;19.60;100.00
8059;BME280;4072;42.668;23.396;2023-05-25T10:26:55;95206.56;;;19.66;100.00
8059;BME280;4072;42.668;23.396;2023-05-25T10:29:42;95219.97;;;20.14;100.00
8059;BME280;4072;42.668;23.396;2023-05-25T10:32:12;95215.84;;;20.43;100.00
8059;BME280;4072;42.668;23.396;2023-05-25T10:34:40;95209.22;;;20.16;100.00
8059;BME280;4072;42.668;23.396;2023-05-25T10:37:10;95201.88;;;20.35;100.00
8059;BME280;4072;42.668;23.396;2023-05-25T10:39:40;95200.66;;;20.36;100.00
8059;BME280;4072;42.668;23.396;2023-05-25T10:42:09;95192.94;;;20.29;100.00
8059;BME280;4072;42.668;23.396;2023-05-25T10:44:39;95193.16;;;20.31;100.00
8059;BME280;4072;42.668;23.396;2023-05-25T10:47:09;95194.72;;;20.21;100.00
8059;BME280;4072;42.668;23.396;2023-05-25T10:49:51;95170.56;;;19.97;100.00
8059;BME280;4072;42.668;23.396;2023-05-25T10:52:20;95179.06;;;19.99;100.00
8059;BME280;4072;42.668;23.396;2023-05-25T10:54:48;95173.38;;;19.81;100.00
8059;BME280;4072;42.668;23.396;2023-05-25T10:57:22;95159.25;;;19.27;100.00
8059;BME280;4072;42.668;23.396;2023-05-25T10:59:52;95187.41;;;19.06;100.00
8059;BME280;4072;42.668;23.396;2023-05-25T11:02:28;95181.44;;;18.96;100.00
8059;BME280;4072;42.668;23.396;2023-05-25T11:05:34;95094.38;;;18.20;100.00
8059;BME280;4072;42.668;23.396;2023-05-25T11:08:05;95175.19;;;18.68;100.00
8059;BME280;4072;42.668;23.396;2023-05-25T11:10:50;95172.19;;;18.66;100.00
8059;BME280;4072;42.668;23.396;2023-05-25T11:13:20;95172.44;;;18.74;100.00
8059;BME280;4072;42.668;23.396;2023-05-25T11:16:13;95159.72;;;18.65;100.00
8059;BME280;4072;42.668;23.396;2023-05-25T11:18:48;95180.91;;;18.76;100.00
8059;BME280;4072;42.668;23.396;2023-05-25T11:21:22;95172.94;;;18.89;100.00
8059;BME280;4072;42.668;23.396;2023-05-25T11:23:57;95169.97;;;18.98;100.00
8059;BME280;4072;42.668;23.396;2023-05-25T11:26:27;95172.47;;;19.07;100.00
8059;BME280;4072;42.668;23.396;2023-05-25T11:28:56;95162.25;;;19.07;100.00
8059;BME280;4072;42.668;23.396;2023-05-25T11:31:29;95165.47;;;19.17;100.00
8059;BME280;4072;42.668;23.396;2023-05-25T11:34:06;95166.47;;;19.36;100.00
8059;BME280;4072;42.668;23.396;2023-05-25T11:36:35;95168.72;;;19.43;100.00
8059;BME280;4072;42.668;23.396;2023-05-25T11:39:05;95172.41;;;19.73;100.00
8059;BME280;4072;42.668;23.396;2023-05-25T11:41:48;95160.19;;;19.68;100.00
8059;BME280;4072;42.668;23.396;2023-05-25T11:44:25;95143.78;;;19.24;100.00
8059;BME280;4072;42.668;23.396;2023-05-25T11:46:54;95140.81;;;19.11;100.00
8059;BME280;4072;42.668;23.396;2023-05-25T11:49:25;95175.94;;;19.13;100.00
8059;BME280;4072;42.668;23.396;2023-05-25T11:51:53;95138.06;;;19.06;100.00
8059;BME280;4072;42.668;23.396;2023-05-25T11:54:24;95160.00;;;19.28;100.00
8059;BME280;4072;42.668;23.396;2023-05-25T11:56:53;95160.97;;;19.47;100.00
8059;BME280;4072;42.668;23.396;2023-05-25T11:59:25;95154.25;;;19.48;100.00
8059;BME280;4072;42.668;23.396;2023-05-25T12:01:58;95100.16;;;19.10;100.00
8059;BME280;4072;42.668;23.396;2023-05-25T12:04:29;95149.91;;;19.80;100.00
8059;BME280;4072;42.668;23.396;2023-05-25T12:07:02;95164.75;;;20.23;100.00
8059;BME280;4072;42.668;23.396;2023-05-25T12:09:31;95110.34;;;20.16;100.00
8059;BME280;4072;42.668;23.396;2023-05-25T12:12:02;95148.75;;;20.68;100.00
8059;BME280;4072;42.668;23.396;2023-05-25T12:14:31;95146.63;;;20.85;100.00
8059;BME280;4072;42.668;23.396;2023-05-25T12:17:01;95144.78;;;20.98;100.00
8059;BME280;4072;42.668;23.396;2023-05-25T12:19:31;95138.38;;;21.20;100.00
8059;BME280;4072;42.668;23.396;2023-05-25T12:21:59;95135.16;;;21.40;100.00
8059;BME280;4072;42.668;23.396;2023-05-25T12:24:27;95126.41;;;21.41;100.00
8059;BME280;4072;42.668;23.396;2023-05-25T12:26:55;95135.59;;;21.73;100.00
8059;BME280;4072;42.668;23.396;2023-05-25T12:29:24;95128.13;;;21.68;100.00
8059;BME280;4072;42.668;23.396;2023-05-25T12:32:00;95113.47;;;21.84;100.00
8059;BME280;4072;42.668;23.396;2023-05-25T12:34:30;95122.34;;;22.14;100.00
8059;BME280;4072;42.668;23.396;2023-05-25T12:36:58;95122.78;;;22.37;98.77
8059;BME280;4072;42.668;23.396;2023-05-25T12:39:33;95110.94;;;22.60;96.33
8059;BME280;4072;42.668;23.396;2023-05-25T12:42:11;95095.72;;;22.72;89.90
8059;BME280;4072;42.668;23.396;2023-05-25T12:44:40;95108.13;;;22.98;87.74
8059;BME280;4072;42.668;23.396;2023-05-25T12:47:10;95109.75;;;23.19;95.12
8059;BME280;4072;42.668;23.396;2023-05-25T12:49:42;95097.81;;;23.43;91.46
8059;BME280;4072;42.668;23.396;2023-05-25T12:52:30;95085.50;;;23.57;72.26
8059;BME280;4072;42.668;23.396;2023-05-25T12:55:17;95089.34;;;23.54;74.86
8059;BME280;4072;42.668;23.396;2023-05-25T12:57:46;95062.69;;;23.56;75.54
8059;BME280;4072;42.668;23.396;2023-05-25T13:00:19;95082.34;;;23.66;74.16
8059;BME280;4072;42.668;23.396;2023-05-25T13:02:47;95068.19;;;23.69;77.14
8059;BME280;4072;42.668;23.396;2023-05-25T13:05:19;95063.84;;;23.74;71.55
8059;BME280;4072;42.668;23.396;2023-05-25T13:07:47;95048.97;;;23.77;65.46
8059;BME280;4072;42.668;23.396;2023-05-25T13:10:16;95063.63;;;24.11;68.83
8059;BME280;4072;42.668;23.396;2023-05-25T13:12:45;95059.38;;;23.71;71.95
8059;BME280;4072;42.668;23.396;2023-05-25T13:15:14;95036.00;;;23.33;74.24
8059;BME280;4072;42.668;23.396;2023-05-25T13:17:43;95054.53;;;23.51;76.72